Time;durP1;ratioP1;P1;durP2;ratioP2;P2;SDS_P1;SDS_P2;PMS_P1;PMS_P2;Temp;Humidity;BMP_temperature;BMP_pressure;BME280_temperature;BME280_humidity;BME280_pressure;Samples;Min_cycle;Max_cycle;Signal;HPM_P1;HPM_P2
2022/01/29 00:00:21;;;;;;;9.13;5.20;;;2.50;99.90;;;;;;4992830;28;20183;-77
2022/01/29 00:02:46;;;;;;;8.90;4.67;;;2.40;99.90;;;;;;4992667;28;20186;-76
2022/01/29 00:05:12;;;;;;;6.23;4.43;;;2.40;99.90;;;;;;4992636;28;20183;-76
2022/01/29 00:07:41;;;;;;;8.07;4.87;;;2.30;99.90;;;;;;4992429;28;20221;-76
2022/01/29 00:10:07;;;;;;;12.73;4.72;;;2.20;99.90;;;;;;4992503;28;20231;-76
2022/01/29 00:12:33;;;;;;;5.68;4.47;;;2.30;99.90;;;;;;4992490;28;20899;-77
2022/01/29 00:14:59;;;;;;;8.37;4.60;;;2.30;99.90;;;;;;4992557;28;20211;-77
2022/01/29 00:17:25;;;;;;;8.87;4.83;;;2.30;99.90;;;;;;4991988;28;20222;-76
2022/01/29 00:19:51;;;;;;;7.82;5.00;;;2.30;99.90;;;;;;4991874;28;20179;-76
2022/01/29 00:22:17;;;;;;;7.00;5.20;;;2.40;99.90;;;;;;4991715;28;20203;-77
2022/01/29 00:24:43;;;;;;;6.17;5.17;;;2.50;99.90;;;;;;4991790;28;20188;-77
2022/01/29 00:27:10;;;;;;;5.35;4.30;;;2.50;99.90;;;;;;4991681;28;20679;-76
2022/01/29 00:29:41;;;;;;;5.88;4.18;;;2.50;99.90;;;;;;4991695;28;20187;-77
2022/01/29 00:32:08;;;;;;;7.35;3.90;;;2.60;99.90;;;;;;4991736;28;20190;-76
2022/01/29 00:34:34;;;;;;;5.30;3.45;;;2.60;99.90;;;;;;4991842;28;20286;-76
2022/01/29 00:36:59;;;;;;;8.67;4.17;;;2.60;99.90;;;;;;4990551;28;20206;-76
2022/01/29 00:39:25;;;;;;;3.13;2.80;;;2.60;99.90;;;;;;4991291;28;20191;-77
2022/01/29 00:41:51;;;;;;;4.20;3.50;;;2.60;99.90;;;;;;4990862;28;20198;-77
2022/01/29 00:44:17;;;;;;;4.05;3.00;;;2.60;99.90;;;;;;4990744;28;20196;-77
2022/01/29 00:46:42;;;;;;;7.77;3.87;;;2.70;99.90;;;;;;4990485;28;20590;-77
2022/01/29 00:49:09;;;;;;;3.30;2.70;;;2.70;99.90;;;;;;4992016;28;20426;-76
2022/01/29 00:51:35;;;;;;;5.78;2.17;;;2.70;99.90;;;;;;4974254;28;20647;-76
2022/01/29 00:54:01;;;;;;;5.23;3.10;;;2.70;99.90;;;;;;4990572;28;20225;-76
2022/01/29 00:56:26;;;;;;;4.30;2.30;;;2.60;99.90;;;;;;4991571;28;20203;-76
2022/01/29 00:58:52;;;;;;;3.90;3.30;;;2.60;99.90;;;;;;4991676;28;20205;-76
2022/01/29 01:01:17;;;;;;;5.33;2.77;;;2.60;99.90;;;;;;4991696;28;20648;-76
2022/01/29 01:03:43;;;;;;;3.17;2.87;;;2.60;99.90;;;;;;4990295;28;20182;-75
2022/01/29 01:06:09;;;;;;;8.00;2.47;;;2.60;99.90;;;;;;4991023;28;20214;-76
2022/01/29 01:08:34;;;;;;;3.23;2.50;;;2.70;99.90;;;;;;4989698;28;20201;-76
2022/01/29 01:11:02;;;;;;;6.10;2.40;;;2.70;99.90;;;;;;4990950;28;20237;-76
2022/01/29 01:13:28;;;;;;;7.22;2.53;;;2.60;99.90;;;;;;4990879;28;20190;-76
2022/01/29 01:15:53;;;;;;;5.00;2.23;;;2.60;99.90;;;;;;4990762;28;20579;-76
2022/01/29 01:18:19;;;;;;;6.20;2.93;;;2.60;99.90;;;;;;4990312;28;20220;-77
2022/01/29 01:20:45;;;;;;;6.97;3.43;;;2.60;99.90;;;;;;4990851;28;20191;-77
2022/01/29 01:23:10;;;;;;;3.53;3.20;;;2.50;99.90;;;;;;4990797;28;20188;-77
2022/01/29 01:25:36;;;;;;;8.93;3.60;;;2.50;99.90;;;;;;4990563;28;20192;-77
2022/01/29 01:28:02;;;;;;;4.70;3.03;;;2.50;99.90;;;;;;4989305;28;20727;-77
2022/01/29 01:30:28;;;;;;;8.75;3.08;;;2.50;99.90;;;;;;4990964;28;20197;-77
2022/01/29 01:32:54;;;;;;;5.60;2.80;;;2.50;99.90;;;;;;4990646;28;20191;-75
2022/01/29 01:35:28;;;;;;;4.07;2.60;;;2.50;99.90;;;;;;4990870;28;20271;-78
2022/01/29 01:38:41;;;;;;;4.38;3.05;;;2.50;99.90;;;;;;4990379;28;20200;-77
2022/01/29 01:40:47;;;;;;;2.92;2.42;;;2.50;99.90;;;;;;4986447;28;20193;-75
2022/01/29 01:43:13;;;;;;;6.78;3.05;;;2.50;99.90;;;;;;4990562;28;20156;-77
2022/01/29 01:45:39;;;;;;;3.20;2.90;;;2.40;99.90;;;;;;4990419;28;20183;-76
2022/01/29 01:48:06;;;;;;;4.77;2.80;;;2.40;99.90;;;;;;4990161;28;20718;-77
2022/01/29 01:50:33;;;;;;;4.45;2.72;;;2.40;99.90;;;;;;4990248;28;20958;-75
2022/01/29 01:52:59;;;;;;;3.58;3.22;;;2.50;99.90;;;;;;4988862;28;20218;-76
2022/01/29 01:55:25;;;;;;;4.70;2.60;;;2.50;99.90;;;;;;4989990;28;20182;-77
2022/01/29 01:57:50;;;;;;;5.80;2.83;;;2.50;99.90;;;;;;4990106;28;20236;-77
2022/01/29 02:00:16;;;;;;;4.60;2.73;;;2.60;99.90;;;;;;4990188;28;20281;-76
2022/01/29 02:02:42;;;;;;;4.93;3.30;;;2.60;99.90;;;;;;4990083;28;20675;-76
2022/01/29 02:05:09;;;;;;;8.67;2.97;;;2.60;99.90;;;;;;4990024;28;20184;-74
2022/01/29 02:07:35;;;;;;;4.05;2.83;;;2.60;99.90;;;;;;4989895;28;20582;-77
2022/01/29 02:10:01;;;;;;;2.35;1.75;;;2.70;99.90;;;;;;4989835;28;20188;-75
2022/01/29 02:12:31;;;;;;;2.63;1.90;;;2.70;99.90;;;;;;4989906;28;20179;-76
2022/01/29 02:15:01;;;;;;;4.45;2.17;;;2.80;99.90;;;;;;4988398;28;20226;-77
2022/01/29 02:17:27;;;;;;;6.40;2.72;;;2.80;99.90;;;;;;4988522;28;20256;-76
2022/01/29 02:19:52;;;;;;;4.90;2.40;;;2.80;99.90;;;;;;4989934;28;20270;-77
2022/01/29 02:22:18;;;;;;;4.93;1.93;;;2.80;99.90;;;;;;4990048;28;20190;-76
2022/01/29 02:24:44;;;;;;;3.40;2.03;;;2.90;99.90;;;;;;4989993;28;20304;-77
2022/01/29 02:27:09;;;;;;;2.33;2.13;;;2.90;99.90;;;;;;4989792;28;20211;-74
2022/01/29 02:29:35;;;;;;;4.97;2.00;;;3.00;99.90;;;;;;4990004;28;20196;-77
2022/01/29 02:32:01;;;;;;;3.80;1.60;;;3.10;99.90;;;;;;4990213;28;20191;-77
2022/01/29 02:34:30;;;;;;;3.17;2.10;;;3.00;99.90;;;;;;4990414;28;20195;-77
2022/01/29 02:36:56;;;;;;;4.82;2.30;;;3.10;99.90;;;;;;4990538;28;20211;-76
2022/01/29 02:39:22;;;;;;;2.93;2.23;;;3.00;99.90;;;;;;4989344;28;20252;-74
2022/01/29 02:41:48;;;;;;;6.83;2.43;;;2.90;99.90;;;;;;4990620;28;20469;-77
2022/01/29 02:44:20;;;;;;;7.40;3.00;;;2.90;99.90;;;;;;4990847;28;20499;-76
2022/01/29 02:46:54;;;;;;;5.85;2.78;;;3.00;99.90;;;;;;4991015;28;20206;-77
2022/01/29 02:49:26;;;;;;;3.90;2.30;;;2.90;99.90;;;;;;4974270;28;20220;-76
2022/01/29 02:51:57;;;;;;;3.92;2.47;;;2.90;99.90;;;;;;4990702;28;20428;-76
2022/01/29 02:54:25;;;;;;;3.00;1.88;;;2.90;99.90;;;;;;4990873;28;20700;-75
2022/01/29 02:56:52;;;;;;;3.57;2.40;;;3.00;99.90;;;;;;4990555;28;20232;-75
2022/01/29 02:59:18;;;;;;;2.22;1.83;;;3.00;99.90;;;;;;4990122;28;20430;-75
2022/01/29 03:01:43;;;;;;;3.10;2.37;;;3.00;99.90;;;;;;4989918;28;20188;-75
2022/01/29 03:04:10;;;;;;;3.60;2.60;;;2.90;99.90;;;;;;4990016;28;20653;-76
2022/01/29 03:06:36;;;;;;;7.10;3.10;;;2.90;99.90;;;;;;4990075;28;20202;-76
2022/01/29 03:09:04;;;;;;;6.30;3.58;;;2.70;99.90;;;;;;4989935;28;20222;-75
2022/01/29 03:11:30;;;;;;;5.57;3.53;;;2.60;99.90;;;;;;4989640;28;20665;-76
2022/01/29 03:13:55;;;;;;;9.50;3.97;;;2.50;99.90;;;;;;4956779;28;20292;-75
2022/01/29 03:16:21;;;;;;;5.40;3.17;;;2.50;99.90;;;;;;4990200;28;20543;-75
2022/01/29 03:18:47;;;;;;;3.27;2.97;;;2.50;99.90;;;;;;4988667;28;20218;-75
2022/01/29 03:21:13;;;;;;;2.87;2.13;;;2.50;99.90;;;;;;4990168;28;20267;-75
2022/01/29 03:23:38;;;;;;;3.20;2.90;;;2.60;99.90;;;;;;4989834;28;20206;-76
2022/01/29 03:26:04;;;;;;;4.03;3.67;;;2.60;99.90;;;;;;4988582;28;20449;-76
2022/01/29 03:28:30;;;;;;;3.43;2.27;;;2.60;99.90;;;;;;4988471;28;20194;-77
2022/01/29 03:30:57;;;;;;;2.03;1.80;;;2.60;99.90;;;;;;4989482;28;20196;-76
2022/01/29 03:33:23;;;;;;;2.88;1.85;;;2.60;99.90;;;;;;4989619;28;20187;-75
2022/01/29 03:35:49;;;;;;;4.53;1.70;;;2.70;99.90;;;;;;4989719;28;20201;-75
2022/01/29 03:38:16;;;;;;;2.28;1.58;;;2.80;99.90;;;;;;4989618;28;20822;-75
2022/01/29 03:40:43;;;;;;;2.92;1.80;;;2.90;99.90;;;;;;4990038;28;20262;-75
2022/01/29 03:43:12;;;;;;;4.82;1.48;;;2.90;99.90;;;;;;4992814;28;20232;-77
2022/01/29 03:45:37;;;;;;;2.60;1.63;;;2.90;99.90;;;;;;4991563;28;20775;-76
2022/01/29 03:48:04;;;;;;;1.90;1.40;;;3.00;99.90;;;;;;4992991;28;20193;-75
2022/01/29 03:50:29;;;;;;;1.92;1.60;;;2.90;99.90;;;;;;4991544;28;20196;-74
2022/01/29 03:52:55;;;;;;;1.80;1.40;;;3.00;99.90;;;;;;4992656;28;20214;-74
2022/01/29 03:55:21;;;;;;;2.10;1.80;;;3.00;99.90;;;;;;4991312;28;20244;-74
2022/01/29 03:57:47;;;;;;;2.72;1.80;;;3.00;99.90;;;;;;4991085;28;20599;-76
2022/01/29 04:00:14;;;;;;;1.42;1.20;;;3.00;99.90;;;;;;4992225;28;20234;-74
2022/01/29 04:02:40;;;;;;;3.88;2.17;;;3.00;99.90;;;;;;4990672;28;20214;-73
2022/01/29 04:05:05;;;;;;;3.00;1.80;;;3.00;99.90;;;;;;4992657;28;20207;-74
2022/01/29 04:07:31;;;;;;;1.63;1.43;;;3.00;99.90;;;;;;4992050;28;20283;-75
2022/01/29 04:09:59;;;;;;;1.43;1.33;;;3.10;99.90;;;;;;4991961;28;20219;-75
2022/01/29 04:12:26;;;;;;;4.85;1.30;;;3.10;99.90;;;;;;4990496;28;20187;-75
2022/01/29 04:14:54;;;;;;;3.55;1.35;;;3.10;99.90;;;;;;4990518;28;20191;-74
2022/01/29 04:17:19;;;;;;;1.60;1.50;;;3.20;99.90;;;;;;4991735;28;20211;-74
2022/01/29 04:19:45;;;;;;;3.83;1.37;;;3.20;99.90;;;;;;4990352;28;20545;-76
2022/01/29 04:22:11;;;;;;;1.43;1.33;;;3.30;99.90;;;;;;4991643;28;20182;-78
2022/01/29 04:24:36;;;;;;;1.43;0.93;;;3.40;99.90;;;;;;4991717;28;20190;-75
2022/01/29 04:27:10;;;;;;;3.57;1.03;;;3.40;99.90;;;;;;4991556;28;20206;-75
2022/01/29 04:29:51;;;;;;;2.33;1.47;;;3.50;99.90;;;;;;4990273;28;20180;-76
2022/01/29 04:32:25;;;;;;;1.45;1.10;;;3.60;99.90;;;;;;4977088;28;20817;-77
2022/01/29 04:34:50;;;;;;;1.55;1.45;;;3.60;99.90;;;;;;4991600;28;20686;-77
2022/01/29 04:37:16;;;;;;;4.83;1.93;;;3.60;99.90;;;;;;4991500;28;20347;-77
2022/01/29 04:39:41;;;;;;;1.30;1.20;;;3.60;99.90;;;;;;4989998;28;20210;-77
2022/01/29 04:42:07;;;;;;;1.27;1.17;;;3.60;99.90;;;;;;4973685;28;20198;-77
2022/01/29 04:44:33;;;;;;;1.93;0.90;;;3.60;99.90;;;;;;4991241;28;20185;-77
2022/01/29 04:46:58;;;;;;;1.17;1.07;;;3.60;99.90;;;;;;4991156;28;20230;-76
2022/01/29 04:49:24;;;;;;;1.20;1.10;;;3.70;99.90;;;;;;4991212;28;20235;-75
2022/01/29 04:51:50;;;;;;;1.47;0.93;;;3.60;99.90;;;;;;4990716;28;20175;-76
2022/01/29 04:54:15;;;;;;;1.63;1.10;;;3.70;99.90;;;;;;4990332;28;20193;-77
2022/01/29 04:56:41;;;;;;;1.60;1.03;;;3.70;99.90;;;;;;4989651;28;20213;-76
2022/01/29 04:59:06;;;;;;;5.03;1.00;;;3.70;99.90;;;;;;4990856;28;20240;-77
2022/01/29 05:01:32;;;;;;;2.23;0.90;;;3.60;99.90;;;;;;4989469;28;20188;-77
2022/01/29 05:03:57;;;;;;;1.00;0.90;;;3.70;99.90;;;;;;4990876;28;20184;-78
2022/01/29 05:06:23;;;;;;;1.50;1.13;;;3.80;99.90;;;;;;4990723;28;20652;-77
2022/01/29 05:08:49;;;;;;;3.20;1.37;;;3.80;99.90;;;;;;4990681;28;20554;-77
2022/01/29 05:11:16;;;;;;;2.60;1.27;;;3.80;99.90;;;;;;4990849;28;20189;-77
2022/01/29 05:13:42;;;;;;;4.93;0.90;;;3.80;99.90;;;;;;4989308;28;20271;-77
2022/01/29 05:27:07;;;;;;;2.90;0.90;;;3.90;99.90;;;;;;4989461;28;20492;-77
2022/01/29 05:29:33;;;;;;;1.42;1.23;;;3.90;99.90;;;;;;4989086;28;20180;-77
2022/01/29 05:32:01;;;;;;;2.17;1.30;;;3.90;99.90;;;;;;4989150;28;20189;-78
2022/01/29 05:34:27;;;;;;;1.27;1.00;;;3.90;99.90;;;;;;4990856;28;20173;-80
2022/01/29 05:36:53;;;;;;;2.30;0.90;;;3.90;99.90;;;;;;4973182;28;20477;-79
2022/01/29 05:39:20;;;;;;;1.40;0.98;;;3.90;99.90;;;;;;4991146;28;20717;-77
2022/01/29 05:41:46;;;;;;;0.90;0.90;;;3.90;99.90;;;;;;4989435;28;20674;-77
2022/01/29 05:44:11;;;;;;;1.07;0.90;;;3.90;99.90;;;;;;4972993;28;20196;-77
2022/01/29 05:46:39;;;;;;;4.30;0.97;;;3.90;99.90;;;;;;4989902;28;20295;-77
2022/01/29 05:49:05;;;;;;;2.97;1.07;;;3.90;99.90;;;;;;4990608;28;20658;-74
2022/01/29 05:51:31;;;;;;;1.35;1.10;;;3.90;99.90;;;;;;4989840;28;21033;-74
2022/01/29 05:54:01;;;;;;;2.03;1.40;;;3.80;99.90;;;;;;4989887;28;20593;-74
2022/01/29 05:56:27;;;;;;;1.85;1.10;;;3.90;99.90;;;;;;4988423;28;20708;-73
2022/01/29 05:58:53;;;;;;;1.65;1.00;;;3.90;99.90;;;;;;4989805;28;20226;-74
2022/01/29 06:01:19;;;;;;;4.00;1.20;;;3.80;99.90;;;;;;4989885;28;20184;-74
2022/01/29 06:03:45;;;;;;;2.67;1.05;;;3.80;99.90;;;;;;4989608;28;20181;-74
2022/01/29 06:06:10;;;;;;;1.40;1.30;;;3.80;99.90;;;;;;4989615;28;20227;-74
2022/01/29 06:08:36;;;;;;;1.73;1.27;;;3.80;99.90;;;;;;4989733;28;20198;-75
2022/01/29 06:11:02;;;;;;;2.03;1.20;;;3.80;99.90;;;;;;4989768;28;20268;-75
2022/01/29 06:13:27;;;;;;;1.60;1.10;;;3.80;99.90;;;;;;4989880;28;20188;-74
2022/01/29 06:15:53;;;;;;;2.20;1.40;;;3.80;99.90;;;;;;4988068;28;20215;-74
2022/01/29 06:18:22;;;;;;;3.00;1.40;;;3.80;99.90;;;;;;4989610;28;20660;-74
2022/01/29 06:20:56;;;;;;;2.60;1.60;;;3.80;99.90;;;;;;4989513;28;20191;-74
2022/01/29 06:23:31;;;;;;;3.50;1.65;;;3.80;99.90;;;;;;4989531;28;20180;-74
2022/01/29 06:25:58;;;;;;;3.67;1.60;;;3.80;99.90;;;;;;4989468;28;20215;-73
2022/01/29 06:28:23;;;;;;;3.20;1.38;;;3.80;99.90;;;;;;4989502;28;20195;-73
2022/01/29 06:30:49;;;;;;;2.23;1.40;;;3.80;99.90;;;;;;4989343;28;20183;-74
2022/01/29 06:33:15;;;;;;;5.80;1.57;;;3.70;99.90;;;;;;4989521;28;20183;-73
2022/01/29 06:35:42;;;;;;;4.50;1.40;;;3.70;99.90;;;;;;4989276;28;20184;-74
2022/01/29 06:38:10;;;;;;;2.47;1.48;;;3.70;99.90;;;;;;4989301;28;20211;-74
2022/01/29 06:40:36;;;;;;;3.05;1.50;;;3.80;99.90;;;;;;4989366;28;20273;-73
2022/01/29 06:43:04;;;;;;;1.85;1.05;;;3.80;99.90;;;;;;4989303;28;20183;-74
2022/01/29 06:45:30;;;;;;;1.85;1.70;;;3.80;99.90;;;;;;4989242;28;20543;-74
2022/01/29 06:47:56;;;;;;;1.85;1.20;;;3.80;99.90;;;;;;4989289;28;20260;-74
2022/01/29 06:50:23;;;;;;;1.13;1.03;;;3.80;99.90;;;;;;4989251;28;20195;-74
2022/01/29 06:52:48;;;;;;;1.42;1.33;;;3.80;99.90;;;;;;4989157;28;20986;-74
2022/01/29 06:55:14;;;;;;;1.20;1.10;;;3.80;99.90;;;;;;4989147;28;20224;-74
2022/01/29 06:57:40;;;;;;;3.13;1.70;;;3.90;99.90;;;;;;4989120;28;20993;-74
2022/01/29 07:00:09;;;;;;;2.17;1.13;;;3.90;99.90;;;;;;4989104;28;20204;-74
2022/01/29 07:02:35;;;;;;;2.08;1.23;;;3.90;99.90;;;;;;4989086;28;20270;-74
2022/01/29 07:05:02;;;;;;;1.30;0.90;;;3.90;99.90;;;;;;4989066;28;20224;-74
2022/01/29 07:07:28;;;;;;;2.93;1.13;;;3.90;99.90;;;;;;4988102;28;20236;-74
2022/01/29 07:09:54;;;;;;;2.03;1.37;;;3.90;99.90;;;;;;4987683;28;21003;-74
2022/01/29 07:12:19;;;;;;;1.10;1.00;;;3.90;99.90;;;;;;4988947;28;20643;-74
2022/01/29 07:14:48;;;;;;;2.33;1.30;;;4.00;99.90;;;;;;4989012;28;20245;-74
2022/01/29 07:17:22;;;;;;;5.30;1.27;;;4.00;99.90;;;;;;4990668;28;20205;-74
2022/01/29 07:19:48;;;;;;;1.33;1.23;;;3.90;99.90;;;;;;4991168;28;20475;-74
2022/01/29 07:22:14;;;;;;;3.20;1.20;;;4.00;99.90;;;;;;4992880;28;20181;-74
2022/01/29 07:24:40;;;;;;;1.27;1.07;;;4.00;99.90;;;;;;4991377;28;20439;-74
2022/01/29 07:27:06;;;;;;;1.20;1.10;;;4.00;99.90;;;;;;4992787;28;20230;-74
2022/01/29 07:29:32;;;;;;;3.80;1.42;;;4.00;99.90;;;;;;4992955;28;20181;-74
2022/01/29 07:31:58;;;;;;;7.68;1.63;;;4.10;99.90;;;;;;4992966;28;20546;-74
2022/01/29 07:34:25;;;;;;;1.50;1.40;;;4.10;99.90;;;;;;4992979;28;20176;-74
2022/01/29 07:36:56;;;;;;;2.30;1.20;;;4.00;99.90;;;;;;4993410;28;20606;-73
2022/01/29 07:39:23;;;;;;;1.50;1.40;;;4.00;99.90;;;;;;4992785;28;20224;-74
2022/01/29 07:41:49;;;;;;;4.37;1.80;;;4.00;99.90;;;;;;4993084;28;20765;-74
2022/01/29 07:44:16;;;;;;;2.53;1.60;;;4.10;99.90;;;;;;4993620;28;20464;-74
2022/01/29 07:46:42;;;;;;;3.23;2.07;;;4.00;99.90;;;;;;4993327;28;20452;-74
2022/01/29 07:49:08;;;;;;;1.75;1.65;;;4.00;99.90;;;;;;4993604;28;20836;-74
2022/01/29 07:51:35;;;;;;;1.60;1.40;;;3.90;99.90;;;;;;4993460;28;20239;-74
2022/01/29 07:54:00;;;;;;;1.93;1.67;;;3.90;99.90;;;;;;4993323;28;20217;-74
2022/01/29 07:56:26;;;;;;;2.20;1.73;;;3.90;99.90;;;;;;4992160;28;20445;-74
2022/01/29 07:58:52;;;;;;;1.93;1.80;;;3.90;99.90;;;;;;4992231;28;20218;-74
2022/01/29 08:01:18;;;;;;;2.13;1.30;;;3.90;99.90;;;;;;4994065;28;20188;-74
2022/01/29 08:03:48;;;;;;;1.58;1.42;;;3.80;99.90;;;;;;4993205;28;20504;-74
2022/01/29 08:06:15;;;;;;;2.20;2.00;;;3.80;99.90;;;;;;4993226;28;20228;-74
2022/01/29 08:08:40;;;;;;;5.07;1.80;;;3.70;99.90;;;;;;4992694;28;20192;-74
2022/01/29 08:11:07;;;;;;;2.20;1.77;;;3.80;99.90;;;;;;4992600;28;20192;-73
2022/01/29 08:13:33;;;;;;;4.13;2.03;;;3.80;99.90;;;;;;4992228;28;20617;-74
2022/01/29 08:15:59;;;;;;;11.73;1.90;;;3.80;99.90;;;;;;4992145;28;20287;-74
2022/01/29 08:18:24;;;;;;;1.90;1.80;;;3.80;99.90;;;;;;4992112;28;20524;-74
2022/01/29 08:20:50;;;;;;;2.17;1.97;;;3.70;99.90;;;;;;4990699;28;20720;-74
2022/01/29 08:23:15;;;;;;;4.70;2.23;;;3.70;99.90;;;;;;4992095;28;20276;-74
2022/01/29 08:25:41;;;;;;;2.20;2.00;;;3.60;99.90;;;;;;4991902;28;20670;-74
2022/01/29 08:28:07;;;;;;;2.20;1.70;;;3.60;99.90;;;;;;4991663;28;20188;-74
2022/01/29 08:30:33;;;;;;;2.20;2.00;;;3.60;99.90;;;;;;4991753;28;20187;-74
2022/01/29 08:33:00;;;;;;;5.63;2.37;;;3.60;99.90;;;;;;4990659;28;20879;-74
2022/01/29 08:35:26;;;;;;;2.03;1.93;;;3.60;99.90;;;;;;4990003;28;20427;-74
2022/01/29 08:37:53;;;;;;;3.30;2.10;;;3.70;99.90;;;;;;4990033;28;20463;-74
2022/01/29 08:40:19;;;;;;;2.97;2.13;;;3.60;99.90;;;;;;4989949;28;20507;-74
2022/01/29 08:42:45;;;;;;;2.27;2.07;;;3.60;99.90;;;;;;4989859;28;20495;-74
2022/01/29 08:45:13;;;;;;;2.73;2.00;;;3.60;99.90;;;;;;4990002;28;20463;-74
2022/01/29 08:47:42;;;;;;;1.73;1.33;;;3.70;99.90;;;;;;4989739;28;20200;-74
2022/01/29 08:50:09;;;;;;;2.78;1.55;;;3.70;99.90;;;;;;4989753;28;20840;-74
2022/01/29 08:52:37;;;;;;;2.95;2.00;;;3.60;99.90;;;;;;4989466;28;20213;-74
2022/01/29 08:55:03;;;;;;;4.47;2.25;;;3.70;99.90;;;;;;4989662;28;20187;-74
2022/01/29 08:57:29;;;;;;;5.85;2.33;;;3.70;99.90;;;;;;4989176;28;20585;-73
2022/01/29 08:59:58;;;;;;;5.00;2.17;;;3.70;99.90;;;;;;4989799;28;20174;-74
2022/01/29 09:02:24;;;;;;;2.65;2.45;;;3.70;99.90;;;;;;4994860;28;20187;-74
2022/01/29 09:04:49;;;;;;;2.90;2.40;;;3.70;99.90;;;;;;4991140;28;20188;-74
2022/01/29 09:07:15;;;;;;;6.40;2.40;;;3.80;99.90;;;;;;4989624;28;20220;-73
2022/01/29 09:09:44;;;;;;;3.73;2.00;;;3.80;99.90;;;;;;4989696;28;20216;-73
2022/01/29 09:12:11;;;;;;;3.00;2.67;;;3.80;99.90;;;;;;4989480;28;20181;-73
2022/01/29 09:14:37;;;;;;;3.10;2.75;;;3.80;99.90;;;;;;4989751;28;20196;-73
2022/01/29 09:17:03;;;;;;;2.20;1.90;;;3.90;99.90;;;;;;4989706;28;20716;-73
2022/01/29 09:19:28;;;;;;;2.53;2.10;;;4.00;99.90;;;;;;4989927;28;21000;-73
2022/01/29 09:21:54;;;;;;;5.07;4.17;;;3.90;99.90;;;;;;4989790;28;20841;-74
2022/01/29 09:24:20;;;;;;;2.87;2.43;;;3.90;99.90;;;;;;4989835;28;20192;-73
2022/01/29 09:26:45;;;;;;;5.30;3.77;;;3.90;99.90;;;;;;4989494;28;20622;-74
2022/01/29 09:29:11;;;;;;;2.80;2.40;;;3.90;99.90;;;;;;4989311;28;20196;-74
2022/01/29 09:31:36;;;;;;;3.80;2.50;;;3.90;99.90;;;;;;4988913;28;20291;-74
2022/01/29 09:34:02;;;;;;;3.37;2.20;;;3.90;99.90;;;;;;4987641;28;20559;-74
2022/01/29 09:36:28;;;;;;;3.27;2.80;;;4.00;99.90;;;;;;4987515;28;20222;-73
2022/01/29 09:38:54;;;;;;;4.65;3.30;;;4.10;99.90;;;;;;4988268;28;20471;-74
2022/01/29 09:41:24;;;;;;;3.90;2.80;;;4.30;99.90;;;;;;4988765;28;20191;-74
2022/01/29 09:43:52;;;;;;;3.13;2.85;;;4.30;99.90;;;;;;4987421;28;20238;-74
2022/01/29 09:46:18;;;;;;;3.27;2.80;;;4.30;99.90;;;;;;4988711;28;20697;-74
2022/01/29 09:48:44;;;;;;;3.45;2.60;;;4.40;99.90;;;;;;4988819;28;20513;-74
2022/01/29 09:51:12;;;;;;;4.20;3.20;;;4.40;99.90;;;;;;4988482;28;20697;-74
2022/01/29 09:53:45;;;;;;;3.05;2.83;;;4.40;99.90;;;;;;4988523;28;20461;-75
2022/01/29 09:56:14;;;;;;;3.20;2.10;;;4.30;99.90;;;;;;4988876;28;20677;-75
2022/01/29 09:58:41;;;;;;;2.60;2.38;;;4.40;99.90;;;;;;4988535;28;20224;-75
2022/01/29 10:01:07;;;;;;;3.38;3.08;;;4.40;99.90;;;;;;4988500;28;20571;-75
2022/01/29 10:03:33;;;;;;;3.93;2.70;;;4.40;99.90;;;;;;4988857;28;20244;-75
2022/01/29 10:06:01;;;;;;;8.23;5.30;;;4.40;99.90;;;;;;4988411;28;20214;-75
2022/01/29 10:08:30;;;;;;;4.20;3.23;;;4.40;99.90;;;;;;4988524;28;20273;-75
2022/01/29 10:10:59;;;;;;;3.00;2.80;;;4.50;99.90;;;;;;4988971;28;20997;-75
2022/01/29 10:13:28;;;;;;;3.93;2.60;;;4.50;99.90;;;;;;4988859;28;20280;-75
2022/01/29 10:16:11;;;;;;;4.40;3.27;;;4.60;99.90;;;;;;4988644;28;20484;-75
2022/01/29 10:18:41;;;;;;;2.75;2.55;;;4.50;99.90;;;;;;4988464;28;20994;-75
2022/01/29 10:21:25;;;;;;;2.58;2.40;;;4.50;99.90;;;;;;4988493;28;20342;-75
2022/01/29 10:24:07;;;;;;;2.75;2.30;;;4.50;99.90;;;;;;4988471;28;20181;-74
2022/01/29 10:26:40;;;;;;;3.77;3.03;;;4.60;99.90;;;;;;4988208;28;20710;-75
2022/01/29 10:29:08;;;;;;;2.75;2.28;;;4.60;99.90;;;;;;4987995;28;20457;-75
2022/01/29 10:31:45;;;;;;;3.17;2.80;;;4.60;99.90;;;;;;4987978;28;20189;-75
2022/01/29 10:34:23;;;;;;;3.80;3.25;;;4.60;99.90;;;;;;4988140;28;20427;-75
2022/01/29 10:37:16;;;;;;;3.50;3.10;;;4.50;99.90;;;;;;4987925;28;20207;-75
2022/01/29 10:40:12;;;;;;;4.10;3.63;;;4.40;99.90;;;;;;4985802;28;20949;-75
2022/01/29 10:42:38;;;;;;;4.03;2.90;;;4.50;99.90;;;;;;4988464;28;20417;-75
2022/01/29 10:45:07;;;;;;;3.40;2.60;;;4.60;99.90;;;;;;4987327;28;21016;-75
2022/01/29 10:47:53;;;;;;;3.43;2.73;;;5.60;99.90;;;;;;4988428;28;20432;-75
2022/01/29 10:50:18;;;;;;;4.07;2.37;;;6.20;99.90;;;;;;4988735;28;20420;-75
2022/01/29 10:52:44;;;;;;;4.80;3.20;;;6.10;99.90;;;;;;4992416;28;20452;-74
2022/01/29 10:55:10;;;;;;;3.83;3.20;;;6.10;99.90;;;;;;4992932;28;20185;-79
2022/01/29 10:57:47;;;;;;;3.07;2.80;;;5.70;99.90;;;;;;4991561;28;20721;-79
2022/01/29 11:00:24;;;;;;;2.70;2.37;;;5.80;99.90;;;;;;4992334;28;20964;-76
2022/01/29 11:02:53;;;;;;;2.70;2.50;;;5.80;99.90;;;;;;4992324;28;20432;-75
2022/01/29 11:05:19;;;;;;;4.90;2.90;;;6.00;99.90;;;;;;4992361;28;20459;-76
2022/01/29 11:07:50;;;;;;;2.87;2.57;;;6.10;99.90;;;;;;4990737;28;20437;-76
2022/01/29 11:10:17;;;;;;;2.30;2.10;;;6.20;99.90;;;;;;4992367;28;20393;-76
2022/01/29 11:12:45;;;;;;;3.50;2.80;;;6.10;99.90;;;;;;4992083;28;20773;-76
2022/01/29 11:15:11;;;;;;;6.27;2.63;;;5.80;99.90;;;;;;4992076;28;20417;-76
2022/01/29 11:17:37;;;;;;;2.30;2.10;;;5.50;99.90;;;;;;4991622;28;20475;-77
2022/01/29 11:20:04;;;;;;;2.80;2.37;;;5.30;99.90;;;;;;4990482;28;20425;-76
2022/01/29 11:22:35;;;;;;;2.80;2.47;;;5.40;99.90;;;;;;4989996;28;20506;-78
2022/01/29 11:25:06;;;;;;;2.87;2.60;;;5.40;99.90;;;;;;4991839;28;20492;-77
2022/01/29 11:27:37;;;;;;;3.00;2.70;;;5.70;99.90;;;;;;4991138;28;20440;-76
2022/01/29 11:30:09;;;;;;;2.70;2.37;;;5.90;99.90;;;;;;4991289;28;21013;-76
2022/01/29 11:32:35;;;;;;;4.17;2.40;;;5.90;99.90;;;;;;4991298;28;20803;-76
2022/01/29 11:35:06;;;;;;;3.77;2.60;;;6.00;99.90;;;;;;4991353;28;20451;-76
2022/01/29 11:37:37;;;;;;;2.93;2.07;;;6.20;99.90;;;;;;4990945;28;20929;-76
2022/01/29 11:40:16;;;;;;;3.70;2.30;;;6.20;99.90;;;;;;4990977;28;20781;-76
2022/01/29 11:43:06;;;;;;;3.50;1.80;;;6.10;99.90;;;;;;4990924;28;20914;-76
2022/01/29 11:45:43;;;;;;;2.00;1.80;;;6.10;99.90;;;;;;4987979;28;20442;-76
2022/01/29 11:48:30;;;;;;;3.00;2.20;;;6.20;99.90;;;;;;4991381;28;20939;-75
2022/01/29 11:51:01;;;;;;;5.10;2.07;;;6.30;99.90;;;;;;4989791;28;20433;-76
2022/01/29 11:53:50;;;;;;;1.63;1.53;;;6.40;99.90;;;;;;4991177;28;20456;-74
2022/01/29 11:56:28;;;;;;;2.60;2.03;;;6.60;99.90;;;;;;4990878;28;20448;-76
2022/01/29 11:59:19;;;;;;;2.37;1.80;;;6.60;99.90;;;;;;4990781;28;20504;-76
2022/01/29 12:01:45;;;;;;;3.83;2.23;;;6.70;99.90;;;;;;4990203;28;20455;-76
2022/01/29 12:04:12;;;;;;;2.10;1.67;;;6.80;99.90;;;;;;4990912;28;20451;-76
2022/01/29 12:06:57;;;;;;;1.67;1.57;;;6.90;99.90;;;;;;4990971;28;20463;-76
2022/01/29 12:09:28;;;;;;;2.17;1.80;;;7.00;99.90;;;;;;4990928;28;20420;-76
2022/01/29 12:12:32;;;;;;;3.80;1.80;;;6.80;99.90;;;;;;4989517;28;20555;-76
2022/01/29 12:15:21;;;;;;;4.73;1.60;;;6.80;99.90;;;;;;4953380;28;20781;-76
2022/01/29 12:17:51;;;;;;;1.67;1.57;;;6.90;99.90;;;;;;4990922;28;20480;-75
2022/01/29 12:20:25;;;;;;;2.07;1.50;;;7.10;99.90;;;;;;4991526;28;20945;-76
2022/01/29 12:22:57;;;;;;;1.20;1.10;;;7.10;99.90;;;;;;4991646;28;20429;-76
2022/01/29 12:25:24;;;;;;;1.80;1.40;;;7.00;99.90;;;;;;4991558;28;20444;-76
2022/01/29 12:27:55;;;;;;;2.23;1.30;;;7.00;99.90;;;;;;4991383;28;20475;-76
2022/01/29 12:30:24;;;;;;;1.20;1.10;;;7.10;99.90;;;;;;4991682;28;20401;-76
2022/01/29 12:32:57;;;;;;;1.90;1.30;;;7.20;99.90;;;;;;4990163;28;20417;-76
2022/01/29 12:35:40;;;;;;;3.27;0.83;;;7.30;99.90;;;;;;4991608;28;20504;-75
2022/01/29 12:38:26;;;;;;;1.40;1.10;;;7.40;99.90;;;;;;4991419;28;20452;-76
2022/01/29 12:41:03;;;;;;;3.90;1.57;;;7.50;99.90;;;;;;4991388;28;20531;-76
2022/01/29 12:43:36;;;;;;;1.77;1.30;;;7.60;99.90;;;;;;4990650;28;20428;-76
2022/01/29 12:46:16;;;;;;;1.50;1.20;;;7.50;99.90;;;;;;4990499;28;20942;-76
2022/01/29 12:48:55;;;;;;;2.80;1.30;;;7.40;99.90;;;;;;4990828;28;20873;-76
2022/01/29 12:51:21;;;;;;;1.20;1.00;;;7.30;99.90;;;;;;4990659;28;20417;-75
2022/01/29 12:53:58;;;;;;;1.77;1.37;;;7.50;99.90;;;;;;4990762;28;20977;-75
2022/01/29 12:56:35;;;;;;;8.37;6.00;;;7.50;99.90;;;;;;4990266;28;20229;-76
2022/01/29 12:59:03;;;;;;;8.70;6.83;;;7.50;99.90;;;;;;4990088;28;20472;-76
2022/01/29 13:01:29;;;;;;;6.93;6.23;;;7.30;99.90;;;;;;4988837;28;20440;-76
2022/01/29 13:04:11;;;;;;;5.00;4.40;;;7.20;99.90;;;;;;4990316;28;20418;-75
2022/01/29 13:06:37;;;;;;;2.03;1.60;;;7.10;99.90;;;;;;4990085;28;20793;-75
2022/01/29 13:09:19;;;;;;;2.80;2.63;;;7.10;99.90;;;;;;4990245;28;21256;-75
2022/01/29 13:11:47;;;;;;;1.80;1.70;;;7.10;99.90;;;;;;4990098;28;21261;-75
2022/01/29 13:14:20;;;;;;;1.53;1.40;;;7.10;99.90;;;;;;4989295;28;20829;-75